Terminal Aerodrome Forecast
Issued by NWS Louisville, KY

Home | Current Version | Previous Version | Text Only | Print | Product List | Glossary On
Versions: 1 2 3 4 5 6 7 8 9 10 11 12 13 14 15 16 17 18 19 20
000
FTUS43 KLMK 291733
TAFLEX
TAF
KLEX 291733Z 2918/3018 05010KT P6SM BKN018 OVC024
     FM292000 07010KT P6SM SCT028 SCT200
     FM300400 10009KT P6SM BKN150
     FM301400 18014G20KT P6SM FEW040 BKN150=

USA.gov is the U.S. government's official web portal to all federal, state and local government web resources and services.